Time;durP1;ratioP1;P1;durP2;ratioP2;P2;SDS_P1;SDS_P2;PMS_P1;PMS_P2;Temp;Humidity;BMP_temperature;BMP_pressure;BME280_temperature;BME280_humidity;BME280_pressure;Samples;Min_cycle;Max_cycle;Signal;HPM_P1;HPM_P2
2023/01/29 00:01:50;;;;;;;7.80;4.10;;;;;;;0.94;71.23;99169.38;79341;1300;3013096;-61
2023/01/29 00:04:17;;;;;;;10.90;4.90;;;;;;;0.88;70.71;99163.98;79330;1301;3011718;-60
2023/01/29 00:06:45;;;;;;;11.40;4.90;;;;;;;0.79;71.20;99158.70;78172;1295;3068193;-60
2023/01/29 00:09:12;;;;;;;9.60;5.20;;;;;;;0.78;71.25;99158.58;79327;1295;3011895;-62
2023/01/29 00:11:39;;;;;;;6.60;4.10;;;;;;;0.84;71.26;99158.43;79341;1295;3013025;-61
2023/01/29 00:14:07;;;;;;;7.40;4.10;;;;;;;0.92;71.13;99156.83;78285;1301;3053249;-60
2023/01/29 00:16:34;;;;;;;9.20;4.60;;;;;;;0.93;71.30;99154.55;79400;1300;3019104;-62
2023/01/29 00:19:01;;;;;;;7.80;4.30;;;;;;;0.98;70.92;99155.12;79291;1300;3012689;-60
2023/01/29 00:21:29;;;;;;;7.70;4.20;;;;;;;0.98;70.79;99156.16;78073;1299;3028572;-62
2023/01/29 00:23:56;;;;;;;9.30;4.40;;;;;;;0.87;70.70;99152.13;79271;1295;3013044;-61
2023/01/29 00:26:23;;;;;;;8.80;4.70;;;;;;;0.70;71.44;99153.77;79323;1295;3013279;-62
2023/01/29 00:28:52;;;;;;;11.60;5.00;;;;;;;0.81;71.35;99156.26;78134;1299;3053461;-60
2023/01/29 00:31:20;;;;;;;10.10;5.10;;;;;;;0.86;71.02;99156.13;79248;1301;3013112;-62
2023/01/29 00:33:49;;;;;;;8.00;4.00;;;;;;;0.81;71.20;99153.31;78747;1295;3011923;-60
2023/01/29 00:36:17;;;;;;;9.80;4.90;;;;;;;0.82;71.26;99153.28;79301;1300;3013631;-59
2023/01/29 00:38:53;;;;;;;9.30;4.40;;;;;;;0.80;71.31;99154.56;79193;1295;3013562;-60
2023/01/29 00:46:54;;;;;;;9.80;4.60;;;;;;;0.74;71.22;99160.05;78030;1300;3053659;-60
2023/01/29 00:49:20;;;;;;;10.80;4.90;;;;;;;0.74;71.60;99162.81;79261;1301;3013638;-63
2023/01/29 00:54:34;;;;;;;11.80;4.60;;;;;;;0.75;71.51;99164.52;78172;1298;3069772;-62
2023/01/29 00:57:01;;;;;;;8.90;4.40;;;;;;;0.78;71.30;99170.13;79352;1295;3013071;-58
2023/01/29 00:59:28;;;;;;;9.00;4.50;;;;;;;0.72;71.68;99169.42;79284;1294;3011705;-62
2023/01/29 01:04:43;;;;;;;9.50;3.60;;;;;;;0.67;72.09;99169.02;78077;1296;3050611;-57
2023/01/29 01:07:09;;;;;;;9.70;4.40;;;;;;;0.74;71.98;99166.25;79449;1300;3018582;-60
2023/01/29 01:12:24;;;;;;;8.30;4.80;;;;;;;0.68;72.03;99168.48;78341;1295;3051158;-61
2023/01/29 01:14:51;;;;;;;7.80;4.50;;;;;;;0.63;72.13;99168.60;79377;1295;3013500;-61
2023/01/29 01:17:18;;;;;;;9.20;4.70;;;;;;;0.65;72.17;99162.17;79368;1294;3011843;-61
2023/01/29 01:19:46;;;;;;;9.30;5.10;;;;;;;0.72;72.01;99162.87;78101;1298;3049577;-59
2023/01/29 01:22:13;;;;;;;7.50;4.20;;;;;;;0.70;72.28;99159.80;79514;1298;3018979;-61
2023/01/29 01:24:40;;;;;;;11.70;5.50;;;;;;;0.71;72.23;99161.16;79406;1306;3011595;-60
2023/01/29 01:27:10;;;;;;;7.50;4.40;;;;;;;0.67;72.31;99158.35;78063;1295;3050905;-60
2023/01/29 01:29:38;;;;;;;9.30;4.80;;;;;;;0.66;72.30;99157.13;79391;1295;3013446;-58
2023/01/29 01:32:05;;;;;;;13.50;5.30;;;;;;;0.61;72.39;99154.88;79416;1295;3012196;-61
2023/01/29 01:34:33;;;;;;;7.40;4.40;;;;;;;0.62;72.92;99157.58;78204;1295;3051085;-60
2023/01/29 01:37:00;;;;;;;7.80;4.00;;;;;;;0.67;72.76;99155.23;79549;1297;3015784;-59
2023/01/29 01:39:27;;;;;;;8.20;3.90;;;;;;;0.64;72.64;99159.44;79461;1298;3011732;-57
2023/01/29 01:41:55;;;;;;;7.90;4.60;;;;;;;0.58;72.56;99152.02;78255;1295;3050939;-61
2023/01/29 01:44:55;;;;;;;10.10;5.30;;;;;;;0.57;73.14;99154.61;79395;1295;3019013;-60
2023/01/29 01:47:27;;;;;;;8.00;4.10;;;;;;;0.60;73.28;99151.27;78199;1295;3053064;-60
2023/01/29 01:49:53;;;;;;;12.20;5.30;;;;;;;0.52;73.29;99145.60;79254;1294;3011692;-60
2023/01/29 01:52:21;;;;;;;10.80;5.20;;;;;;;0.46;73.83;99148.85;78204;1294;3028111;-60
2023/01/29 01:54:48;;;;;;;10.90;4.80;;;;;;;0.46;74.11;99148.17;79294;1301;3019221;-60
2023/01/29 01:57:23;;;;;;;10.90;5.10;;;;;;;0.49;73.87;99150.86;79439;1298;3011618;-63
2023/01/29 01:59:56;;;;;;;9.60;4.70;;;;;;;0.47;74.18;99147.62;78176;1295;3056916;-60
2023/01/29 02:10:45;;;;;;;7.80;4.10;;;;;;;0.60;73.75;99150.22;78220;1295;3053119;-61
2023/01/29 02:13:14;;;;;;;9.80;4.80;;;;;;;0.60;73.65;99147.48;79344;1299;3012954;-59
2023/01/29 02:15:50;;;;;;;10.70;4.60;;;;;;;0.45;73.76;99152.84;77964;1295;3068317;-60
2023/01/29 02:18:20;;;;;;;9.00;4.70;;;;;;;0.44;74.32;99147.70;78730;1295;3012216;-59
2023/01/29 02:21:27;;;;;;;8.20;4.70;;;;;;;0.44;74.00;99151.67;79512;1296;3014903;-60
2023/01/29 02:24:20;;;;;;;7.00;3.90;;;;;;;0.36;74.05;99148.23;77992;1300;3048311;-62
2023/01/29 02:26:58;;;;;;;7.40;3.80;;;;;;;0.32;74.42;99140.57;78219;1294;3053534;-60
2023/01/29 02:29:47;;;;;;;8.50;4.10;;;;;;;0.22;74.68;99136.84;78173;1298;3050035;-58
2023/01/29 02:32:37;;;;;;;8.70;4.40;;;;;;;0.15;75.27;99134.61;78228;1295;3052979;-62
2023/01/29 02:35:27;;;;;;;7.30;4.40;;;;;;;0.04;75.55;99136.74;78166;1298;3052000;-59
2023/01/29 02:38:43;;;;;;;8.90;4.40;;;;;;;0.14;75.59;99135.14;78231;1296;3069067;-60
2023/01/29 02:41:14;;;;;;;9.40;4.70;;;;;;;0.13;75.44;99136.18;77713;1306;3051066;-60
2023/01/29 02:43:45;;;;;;;9.90;4.50;;;;;;;0.10;75.44;99135.23;79452;1294;3013211;-59
2023/01/29 02:46:29;;;;;;;7.90;4.00;;;;;;;0.13;75.90;99135.85;78018;1300;3049251;-61
2023/01/29 02:49:22;;;;;;;7.00;3.70;;;;;;;0.14;75.75;99135.30;78174;1295;3053609;-62
2023/01/29 02:51:58;;;;;;;9.40;4.30;;;;;;;0.11;75.55;99137.27;78288;1294;3050439;-63
2023/01/29 02:54:31;;;;;;;8.30;4.70;;;;;;;0.07;75.90;99137.35;78216;1295;3052355;-58
2023/01/29 02:56:59;;;;;;;6.20;3.40;;;;;;;-0.03;76.32;99139.85;79391;1298;3012932;-58
2023/01/29 02:59:38;;;;;;;7.30;3.20;;;;;;;0.55;75.36;99138.61;78056;1295;3068978;-61
2023/01/29 03:02:08;;;;;;;5.90;3.40;;;;;;;1.25;72.34;99138.02;78170;1298;3050730;-60
2023/01/29 03:04:41;;;;;;;5.30;3.00;;;;;;;1.56;71.59;99138.34;79292;1301;3012667;-59
2023/01/29 03:07:39;;;;;;;8.40;3.40;;;;;;;1.54;71.18;99139.45;78026;1295;3048627;-59
2023/01/29 03:10:01;;;;;;;7.90;4.10;;;;;;;1.43;71.42;99140.09;78069;1295;3053264;-64
2023/01/29 03:12:32;;;;;;;7.00;3.70;;;;;;;1.24;71.60;99149.23;79236;1298;3012956;-63
2023/01/29 03:15:10;;;;;;;7.80;4.40;;;;;;;0.98;71.85;99145.48;78022;1301;3051897;-62
2023/01/29 03:18:01;;;;;;;9.70;4.10;;;;;;;0.85;72.44;99148.39;78037;1294;3069287;-62
2023/01/29 03:20:32;;;;;;;7.80;4.10;;;;;;;0.68;73.10;99147.45;78137;1298;3051794;-61
2023/01/29 03:23:10;;;;;;;6.70;4.00;;;;;;;0.63;73.42;99144.98;79510;1298;3012943;-60
2023/01/29 03:34:15;;;;;;;8.80;4.70;;;;;;;0.40;74.16;99144.17;78077;1298;3052829;-62
2023/01/29 03:36:54;;;;;;;7.90;4.60;;;;;;;0.43;74.01;99145.65;78060;1300;3052519;-60
2023/01/29 03:39:27;;;;;;;10.20;5.30;;;;;;;0.23;74.56;99145.95;78208;1295;3069092;-59
2023/01/29 03:42:16;;;;;;;12.50;6.30;;;;;;;0.11;75.35;99143.98;79229;1295;3011467;-59
2023/01/29 03:44:49;;;;;;;11.60;6.00;;;;;;;0.00;75.75;99146.30;78152;1298;3057264;-60
2023/01/29 03:47:33;;;;;;;8.60;4.60;;;;;;;-0.02;76.14;99141.52;78141;1298;3050149;-62
2023/01/29 03:50:04;;;;;;;11.50;5.30;;;;;;;-0.03;76.08;99142.76;78151;1298;3053932;-60
2023/01/29 03:52:45;;;;;;;10.00;4.70;;;;;;;-0.00;75.95;99141.49;79391;1295;3011755;-59
2023/01/29 03:55:23;;;;;;;9.40;5.10;;;;;;;-0.02;75.93;99141.89;78047;1301;3051958;-58
2023/01/29 03:58:10;;;;;;;10.80;4.50;;;;;;;-0.04;75.97;99138.98;78023;1300;3052370;-59
2023/01/29 04:00:44;;;;;;;7.60;3.80;;;;;;;-0.09;76.14;99144.61;78192;1296;3068672;-60
2023/01/29 08:27:43;;;;;;;7.60;3.50;;;;;;;-0.30;75.58;99177.58;80071;1301;3012515;-63
2023/01/29 08:30:11;;;;;;;12.70;5.50;;;;;;;0.38;74.91;99180.21;79055;1301;3012843;-62
2023/01/29 08:32:37;;;;;;;9.30;4.30;;;;;;;1.35;72.63;99182.59;79014;1306;3011738;-60
2023/01/29 08:35:06;;;;;;;10.30;5.00;;;;;;;1.53;69.58;99186.92;77790;1305;3025834;-62
2023/01/29 08:37:33;;;;;;;15.00;5.50;;;;;;;1.54;69.81;99181.37;79251;1300;3013211;-63
2023/01/29 08:39:59;;;;;;;15.10;6.30;;;;;;;1.30;69.02;99179.27;77447;1301;3011963;-62
2023/01/29 08:42:27;;;;;;;10.30;6.20;;;;;;;1.13;69.94;99176.46;78397;1300;3048964;-61
2023/01/29 08:44:54;;;;;;;10.80;6.00;;;;;;;1.20;70.00;99180.08;79206;1302;3013702;-63
2023/01/29 08:47:20;;;;;;;12.70;6.90;;;;;;;1.07;69.95;99178.69;79122;1301;3011741;-61
2023/01/29 08:49:48;;;;;;;15.30;6.40;;;;;;;0.82;70.41;99180.20;77935;1302;3028204;-63
2023/01/29 08:52:15;;;;;;;16.00;6.50;;;;;;;0.76;70.37;99176.54;79041;1302;3013702;-63
2023/01/29 08:54:47;;;;;;;13.10;6.80;;;;;;;0.66;71.12;99175.77;78670;1298;3011663;-60
2023/01/29 08:57:14;;;;;;;13.00;7.40;;;;;;;0.30;71.84;99174.55;79590;1297;3020566;-61
2023/01/29 08:59:40;;;;;;;14.00;7.70;;;;;;;0.11;72.89;99176.54;79028;1302;3013090;-63
2023/01/29 09:02:12;;;;;;;15.40;7.70;;;;;;;0.11;73.42;99178.09;78038;1303;3049571;-63
2023/01/29 09:04:39;;;;;;;14.20;6.60;;;;;;;0.15;73.10;99175.77;79184;1303;3012919;-62
2023/01/29 09:07:05;;;;;;;14.90;7.30;;;;;;;-0.07;73.61;99177.48;79066;1303;3011690;-62
2023/01/29 09:09:34;;;;;;;13.60;7.20;;;;;;;-0.03;74.22;99177.89;78237;1302;3051117;-61
2023/01/29 09:12:00;;;;;;;13.80;7.40;;;;;;;0.06;73.58;99173.21;79166;1298;3013709;-61
2023/01/29 09:14:27;;;;;;;15.80;8.10;;;;;;;0.02;73.38;99174.84;79178;1297;3013236;-64
2023/01/29 09:16:55;;;;;;;16.60;7.90;;;;;;;0.08;73.47;99170.42;77869;1298;3028746;-62
2023/01/29 09:19:22;;;;;;;16.20;7.40;;;;;;;-0.05;73.60;99165.02;79471;1302;3019414;-59
2023/01/29 09:21:48;;;;;;;17.60;8.90;;;;;;;-0.07;73.67;99162.32;79058;1299;3011630;-61
2023/01/29 09:24:16;;;;;;;15.20;8.20;;;;;;;-0.12;74.05;99161.36;77902;1301;3028439;-60
2023/01/29 09:26:46;;;;;;;15.50;7.90;;;;;;;0.16;73.24;99161.96;79386;1297;3012004;-61
2023/01/29 09:29:15;;;;;;;13.60;7.60;;;;;;;0.09;73.12;99158.67;78635;1298;3011861;-62
2023/01/29 09:31:41;;;;;;;15.50;7.10;;;;;;;0.20;72.84;99157.91;79166;1298;3012978;-62
2023/01/29 09:34:08;;;;;;;15.80;8.40;;;;;;;0.29;72.78;99156.84;79306;1298;3011894;-61
2023/01/29 09:36:37;;;;;;;16.60;7.90;;;;;;;0.45;72.09;99161.47;78239;1297;3051917;-62
2023/01/29 09:39:03;;;;;;;16.80;8.20;;;;;;;0.50;71.76;99159.61;79378;1301;3020627;-63
2023/01/29 09:41:41;;;;;;;15.70;7.40;;;;;;;0.39;71.80;99164.54;79336;1297;3011839;-62
2023/01/29 09:44:23;;;;;;;15.70;7.40;;;;;;;0.50;71.80;99161.86;78031;1303;3049815;-60
2023/01/29 09:46:51;;;;;;;18.80;8.00;;;;;;;0.55;71.44;99161.39;77997;1303;3054082;-63
2023/01/29 09:49:18;;;;;;;18.10;7.90;;;;;;;0.40;71.41;99160.37;79167;1304;3018768;-65
2023/01/29 09:51:53;;;;;;;16.80;8.10;;;;;;;0.32;71.69;99156.61;79081;1297;3011643;-63
2023/01/29 09:54:23;;;;;;;17.40;7.80;;;;;;;0.29;71.97;99155.64;77754;1304;3068632;-62
2023/01/29 09:56:52;;;;;;;16.50;7.80;;;;;;;0.36;71.95;99152.02;79144;1304;3011727;-63
2023/01/29 09:59:22;;;;;;;15.70;8.00;;;;;;;0.37;72.12;99153.03;77965;1297;3056530;-61
2023/01/29 10:01:54;;;;;;;15.90;7.50;;;;;;;0.46;72.23;99154.71;79255;1297;3013672;-61
2023/01/29 10:04:44;;;;;;;15.10;8.10;;;;;;;0.39;72.04;99145.91;77859;1297;3054049;-62
2023/01/29 10:07:19;;;;;;;17.70;8.50;;;;;;;0.22;72.97;99142.17;77954;1302;3051337;-60
2023/01/29 10:10:10;;;;;;;17.90;7.60;;;;;;;0.26;72.87;99132.77;78673;1302;3013667;-62
2023/01/29 10:12:55;;;;;;;17.10;7.20;;;;;;;0.45;72.09;99126.48;77983;1301;3053331;-62
2023/01/29 10:15:45;;;;;;;15.20;8.30;;;;;;;0.57;71.84;99124.27;77819;1304;3052138;-61
2023/01/29 10:18:58;;;;;;;16.90;8.40;;;;;;;0.50;71.68;99119.63;77938;1302;3068508;-63
2023/01/29 10:21:35;;;;;;;19.50;8.60;;;;;;;0.32;71.96;99114.72;77614;1310;3050887;-63
2023/01/29 10:24:36;;;;;;;16.50;7.20;;;;;;;0.05;72.46;99112.61;77908;1298;3059551;-65
2023/01/29 10:27:15;;;;;;;14.00;7.30;;;;;;;0.17;71.84;99113.36;77796;1301;3050891;-59
2023/01/29 10:29:43;;;;;;;15.10;8.70;;;;;;;0.00;72.85;99123.23;77982;1301;3053438;-63
2023/01/29 10:32:17;;;;;;;17.30;8.20;;;;;;;0.02;73.02;99121.64;79185;1301;3014288;-63
2023/01/29 10:34:48;;;;;;;18.20;8.20;;;;;;;0.08;73.34;99118.05;78016;1301;3052293;-62
2023/01/29 10:37:17;;;;;;;12.80;7.00;;;;;;;0.14;73.10;99107.06;79164;1301;3013332;-64
2023/01/29 10:39:45;;;;;;;17.60;8.70;;;;;;;-0.08;73.26;99105.49;78086;1297;3050832;-63
2023/01/29 10:42:15;;;;;;;19.90;8.60;;;;;;;-0.14;73.47;99110.11;79080;1299;3021199;-67
2023/01/29 10:45:26;;;;;;;14.80;7.00;;;;;;;-0.27;73.37;99113.00;78843;1298;3011694;-64
2023/01/29 10:48:27;;;;;;;13.60;7.70;;;;;;;-0.26;74.10;99106.44;77952;1298;3053128;-64
2023/01/29 10:51:14;;;;;;;21.30;9.30;;;;;;;-0.27;73.90;99104.39;77994;1301;3051203;-63
2023/01/29 10:54:12;;;;;;;17.00;8.20;;;;;;;-0.33;73.68;99098.33;77984;1298;3052464;-65
2023/01/29 10:56:49;;;;;;;20.60;8.30;;;;;;;-0.48;74.56;99097.61;78173;1301;3052682;-64
2023/01/29 10:59:51;;;;;;;24.60;8.90;;;;;;;-0.53;74.72;99104.94;77974;1301;3069054;-66
2023/01/29 11:02:21;;;;;;;18.20;8.40;;;;;;;-0.40;74.61;99102.94;78033;1297;3049954;-63
2023/01/29 11:04:48;;;;;;;18.50;8.50;;;;;;;-0.37;74.77;99102.20;79258;1298;3013878;-64
2023/01/29 11:07:16;;;;;;;22.30;7.80;;;;;;;-0.31;75.00;99098.11;79379;1298;3011920;-62
2023/01/29 11:09:53;;;;;;;14.70;7.90;;;;;;;-0.16;74.43;99100.17;78036;1298;3049354;-63
2023/01/29 11:12:26;;;;;;;25.30;9.60;;;;;;;-0.30;74.44;99097.92;78074;1301;3052925;-65
2023/01/29 11:15:02;;;;;;;21.10;9.00;;;;;;;-0.30;74.79;99096.70;79231;1301;3013688;-61
2023/01/29 11:17:30;;;;;;;23.80;9.60;;;;;;;-0.47;75.30;99107.23;78019;1301;3069716;-60
2023/01/29 11:19:58;;;;;;;24.30;10.10;;;;;;;-0.54;75.78;99102.71;79344;1298;3012991;-65
2023/01/29 11:22:26;;;;;;;24.60;9.20;;;;;;;-0.52;75.77;99102.19;79306;1298;3012041;-61
2023/01/29 11:25:17;;;;;;;24.70;10.40;;;;;;;-0.54;75.62;99104.63;78054;1301;3053294;-62
2023/01/29 11:27:50;;;;;;;20.90;9.80;;;;;;;-0.52;75.28;99108.88;78067;1297;3050019;-64
2023/01/29 11:30:43;;;;;;;22.60;9.90;;;;;;;-0.60;75.58;99100.45;79291;1298;3011631;-61
2023/01/29 11:33:20;;;;;;;19.10;8.80;;;;;;;-0.50;75.71;99107.98;77998;1297;3052162;-61
2023/01/29 11:35:48;;;;;;;21.50;10.50;;;;;;;-0.54;75.23;99108.41;77994;1298;3068221;-63
2023/01/29 11:38:15;;;;;;;17.70;9.60;;;;;;;-0.60;75.91;99110.42;79272;1298;3014933;-61
2023/01/29 11:40:42;;;;;;;18.90;9.60;;;;;;;-0.37;74.82;99112.17;79107;1297;3011692;-64
2023/01/29 11:43:30;;;;;;;22.20;9.90;;;;;;;-0.18;73.90;99114.68;78042;1301;3053542;-61
2023/01/29 11:46:03;;;;;;;26.80;11.10;;;;;;;-0.35;74.05;99115.92;78037;1298;3049197;-63
2023/01/29 11:48:50;;;;;;;22.90;9.90;;;;;;;-0.41;74.11;99112.44;79237;1302;3012103;-65
2023/01/29 11:51:24;;;;;;;20.50;8.80;;;;;;;-0.41;74.34;99114.15;77930;1303;3052203;-63
2023/01/29 11:53:58;;;;;;;20.80;9.00;;;;;;;-0.45;73.99;99114.25;78627;1313;3011800;-63
2023/01/29 11:56:29;;;;;;;22.60;11.20;;;;;;;-0.59;74.69;99119.34;79072;1301;3011723;-62
2023/01/29 11:58:57;;;;;;;27.00;11.10;;;;;;;-0.53;74.64;99123.17;78215;1302;3051153;-63
2023/01/29 12:01:43;;;;;;;18.10;9.20;;;;;;;-0.54;74.78;99128.36;79317;1297;3013784;-66
2023/01/29 12:04:18;;;;;;;20.50;9.30;;;;;;;-0.43;74.47;99132.42;78065;1302;3055075;-63
2023/01/29 12:06:47;;;;;;;15.60;8.40;;;;;;;-0.27;74.10;99130.55;79251;1298;3011574;-63
2023/01/29 12:09:16;;;;;;;21.70;9.90;;;;;;;-0.29;74.09;99133.52;77910;1301;3053286;-62
2023/01/29 12:11:42;;;;;;;22.20;9.50;;;;;;;-0.33;74.38;99128.96;79298;1302;3012886;-65
2023/01/29 12:14:32;;;;;;;27.20;11.30;;;;;;;-0.33;74.09;99132.58;79199;1302;3011442;-62
2023/01/29 12:17:18;;;;;;;19.80;9.90;;;;;;;-0.42;74.90;99130.69;78069;1298;3056552;-63
2023/01/29 12:19:47;;;;;;;26.40;11.30;;;;;;;-0.33;74.39;99133.08;78083;1302;3049827;-63
2023/01/29 12:22:22;;;;;;;25.10;11.80;;;;;;;-0.44;74.64;99133.32;79184;1298;3013646;-63
2023/01/29 12:25:01;;;;;;;19.80;8.70;;;;;;;-0.41;75.16;99136.34;78108;1303;3052919;-65
2023/01/29 12:27:35;;;;;;;12.70;6.10;;;;;;;-0.37;75.00;99141.94;77780;1302;3052412;-63
2023/01/29 12:30:20;;;;;;;19.80;8.10;;;;;;;0.27;73.71;99140.50;79142;1302;3011596;-64
2023/01/29 12:32:48;;;;;;;20.30;8.50;;;;;;;0.90;70.98;99142.23;77847;1302;3051009;-60
2023/01/29 12:35:24;;;;;;;23.40;9.30;;;;;;;0.86;70.53;99137.84;79179;1299;3013866;-60
2023/01/29 12:38:16;;;;;;;18.70;8.90;;;;;;;0.73;70.14;99138.35;78135;1302;3054143;-62
2023/01/29 12:41:06;;;;;;;15.60;8.80;;;;;;;0.29;70.58;99146.15;77791;1302;3050748;-62
2023/01/29 12:43:39;;;;;;;19.80;8.50;;;;;;;0.01;71.53;99136.81;77809;1313;3053118;-62
2023/01/29 12:46:07;;;;;;;23.10;10.70;;;;;;;0.03;71.94;99136.60;79139;1303;3011324;-63
2023/01/29 12:48:38;;;;;;;19.10;9.60;;;;;;;-0.35;72.77;99136.06;77963;1303;3068661;-62
2023/01/29 12:51:36;;;;;;;19.70;9.80;;;;;;;-0.40;73.02;99140.97;79234;1298;3011859;-60
2023/01/29 12:54:09;;;;;;;21.30;10.60;;;;;;;-0.46;73.41;99144.38;77945;1302;3057028;-62
2023/01/29 12:56:38;;;;;;;19.50;8.60;;;;;;;-0.38;73.37;99141.27;79076;1297;3012350;-61
2023/01/29 12:59:16;;;;;;;21.70;9.60;;;;;;;-0.47;73.60;99139.41;77875;1298;3053146;-63
2023/01/29 17:19:00;;;;;;;10.10;4.00;;;;;;;-1.92;77.91;99258.71;79825;1301;3014884;-63
2023/01/29 17:21:29;;;;;;;16.50;8.60;;;;;;;-1.31;76.36;99246.50;79036;1305;3013558;-60
2023/01/29 17:23:58;;;;;;;14.70;6.60;;;;;;;-0.32;74.26;99246.47;78517;1305;3013442;-58
2023/01/29 17:26:25;;;;;;;17.50;7.90;;;;;;;-0.25;71.07;99244.27;78969;1306;3013234;-59
2023/01/29 17:28:52;;;;;;;13.60;7.40;;;;;;;-0.40;71.08;99249.05;78845;1306;3013127;-59
2023/01/29 17:31:19;;;;;;;11.10;6.30;;;;;;;-0.32;70.96;99250.27;75826;1301;3048866;-59
2023/01/29 17:33:46;;;;;;;14.80;8.20;;;;;;;-0.57;70.12;99256.27;79291;1303;3013529;-59
2023/01/29 17:36:13;;;;;;;17.30;8.50;;;;;;;-0.63;70.30;99261.02;79117;1301;3011866;-57
2023/01/29 17:38:42;;;;;;;15.40;7.70;;;;;;;-0.67;70.51;99264.02;77905;1303;3049113;-60
2023/01/29 17:41:18;;;;;;;14.40;7.00;;;;;;;-0.87;70.65;99266.59;79226;1303;3013351;-61
2023/01/29 17:43:46;;;;;;;12.60;6.70;;;;;;;-0.93;70.67;99261.87;78033;1302;3069288;-64
2023/01/29 17:46:14;;;;;;;16.10;7.70;;;;;;;-1.26;71.33;99266.02;79198;1303;3013173;-59
2023/01/29 17:48:41;;;;;;;14.10;7.60;;;;;;;-1.25;71.47;99265.15;79259;1297;3011909;-61
2023/01/29 17:51:13;;;;;;;13.20;6.10;;;;;;;-1.13;71.13;99263.58;78060;1297;3053021;-63
2023/01/29 17:53:41;;;;;;;13.30;7.10;;;;;;;-1.36;71.10;99267.20;79182;1302;3011886;-63
2023/01/29 17:56:31;;;;;;;14.90;6.70;;;;;;;-1.39;71.45;99268.28;78012;1302;3052263;-62
2023/01/29 17:58:59;;;;;;;18.10;7.50;;;;;;;-1.32;71.11;99274.20;78087;1301;3051282;-61
2023/01/29 18:01:26;;;;;;;16.40;7.10;;;;;;;-1.48;71.59;99267.05;79387;1301;3013741;-62
2023/01/29 18:03:52;;;;;;;16.10;8.30;;;;;;;-1.42;71.23;99256.83;79254;1301;3011663;-60
2023/01/29 18:06:25;;;;;;;15.50;6.60;;;;;;;-1.65;71.58;99255.77;78075;1301;3027974;-62
2023/01/29 18:08:52;;;;;;;;;;;;;;;-1.72;70.84;99254.69;79272;1298;3013213;-60
2023/01/29 18:11:20;;;;;;;9.00;4.70;;;;;;;-1.85;70.76;99250.40;78051;1300;3049577;-62
2023/01/29 18:13:47;;;;;;;8.70;5.60;;;;;;;-1.81;70.76;99254.46;79368;1300;3013204;-61
2023/01/29 18:16:13;;;;;;;13.40;6.80;;;;;;;-1.98;70.88;99249.70;79473;1300;3011644;-62
2023/01/29 18:18:41;;;;;;;11.30;6.50;;;;;;;-1.91;71.38;99251.16;77978;1297;3025772;-62
2023/01/29 18:21:08;;;;;;;10.70;5.80;;;;;;;-1.86;70.70;99249.02;79273;1300;3013563;-62
2023/01/29 18:23:35;;;;;;;10.40;5.80;;;;;;;-1.81;70.15;99248.45;79345;1300;3011980;-63
2023/01/29 18:26:02;;;;;;;9.10;5.00;;;;;;;-1.83;70.23;99247.10;78017;1300;3027981;-64
2023/01/29 18:28:30;;;;;;;9.90;5.10;;;;;;;-1.87;70.28;99244.41;79577;1297;3013660;-61
2023/01/29 18:30:57;;;;;;;11.90;5.20;;;;;;;-1.89;69.83;99243.06;79272;1300;3011392;-62
2023/01/29 18:33:25;;;;;;;8.60;5.60;;;;;;;-1.94;70.00;99239.02;77848;1297;3051051;-65
2023/01/29 18:35:53;;;;;;;9.10;5.40;;;;;;;-1.91;69.76;99235.70;79275;1300;3012973;-62
2023/01/29 18:38:20;;;;;;;9.80;5.40;;;;;;;-2.01;69.96;99235.84;79375;1301;3011789;-61
2023/01/29 18:40:49;;;;;;;7.60;4.70;;;;;;;-1.96;69.97;99235.09;78060;1300;3050927;-62
2023/01/29 18:43:15;;;;;;;9.70;5.60;;;;;;;-2.02;69.79;99232.27;79251;1301;3015484;-64
2023/01/29 18:45:42;;;;;;;11.60;6.40;;;;;;;-2.11;70.28;99234.08;79281;1300;3011979;-62
2023/01/29 18:48:10;;;;;;;12.70;6.00;;;;;;;-2.10;70.38;99233.39;78099;1298;3051086;-62
2023/01/29 18:50:37;;;;;;;11.80;6.00;;;;;;;-2.09;70.51;99235.94;79482;1297;3013375;-62
2023/01/29 18:53:03;;;;;;;11.30;5.80;;;;;;;-2.00;70.45;99241.17;79318;1297;3013570;-61
2023/01/29 18:55:31;;;;;;;15.70;7.00;;;;;;;-2.00;70.25;99237.73;78172;1300;3050447;-62
2023/01/29 18:57:58;;;;;;;12.40;6.80;;;;;;;-2.19;70.60;99244.31;79282;1301;3021072;-63
2023/01/29 19:00:24;;;;;;;12.70;6.20;;;;;;;-2.10;70.74;99244.88;79187;1298;3013461;-62
2023/01/29 19:02:52;;;;;;;12.80;6.00;;;;;;;-2.03;70.33;99245.65;78102;1303;3026656;-62
2023/01/29 19:05:22;;;;;;;12.50;5.50;;;;;;;-2.14;70.67;99249.40;79225;1300;3013019;-64
2023/01/29 19:07:52;;;;;;;9.80;4.60;;;;;;;-2.06;70.30;99248.96;78063;1300;3053635;-62
2023/01/29 19:10:18;;;;;;;11.30;5.70;;;;;;;-2.11;70.25;99246.43;79155;1303;3012972;-61
2023/01/29 19:12:46;;;;;;;12.50;6.10;;;;;;;-2.06;70.17;99247.58;79272;1300;3012990;-60
2023/01/29 19:15:19;;;;;;;13.70;6.20;;;;;;;-1.95;69.94;99253.45;78061;1297;3069273;-62
2023/01/29 19:17:45;;;;;;;14.70;6.00;;;;;;;-1.95;69.62;99259.95;79233;1297;3013171;-61
2023/01/29 19:20:14;;;;;;;13.20;5.50;;;;;;;-1.98;69.48;99265.68;78068;1300;3056842;-62
2023/01/29 19:22:41;;;;;;;15.90;6.20;;;;;;;-2.13;69.44;99263.11;79224;1300;3016050;-62
2023/01/29 19:25:08;;;;;;;10.10;5.40;;;;;;;-2.14;69.69;99268.10;79245;1301;3011450;-61
2023/01/29 19:27:36;;;;;;;11.80;5.70;;;;;;;-1.97;69.38;99274.75;77989;1304;3052572;-62
2023/01/29 19:30:04;;;;;;;13.70;5.80;;;;;;;-2.00;69.46;99277.54;79375;1297;3019024;-62
2023/01/29 19:32:35;;;;;;;13.40;5.80;;;;;;;-1.92;69.27;99282.59;77979;1300;3051554;-62
2023/01/29 19:35:02;;;;;;;11.20;5.20;;;;;;;-1.92;69.28;99283.96;79264;1298;3013190;-62
2023/01/29 19:37:29;;;;;;;12.00;5.30;;;;;;;-1.97;69.13;99287.98;79172;1299;3014105;-63
2023/01/29 19:39:59;;;;;;;12.10;5.60;;;;;;;-2.17;69.98;99291.30;78383;1300;3049637;-63
2023/01/29 19:42:26;;;;;;;9.20;4.90;;;;;;;-2.09;69.85;99287.95;79320;1300;3012928;-63
2023/01/29 19:44:52;;;;;;;10.60;5.30;;;;;;;-1.95;69.37;99285.38;79394;1300;3011479;-64
2023/01/29 19:47:20;;;;;;;12.70;6.00;;;;;;;-2.10;69.52;99290.71;78224;1300;3028190;-64
2023/01/29 19:49:49;;;;;;;10.00;5.10;;;;;;;-2.00;69.67;99284.75;79152;1298;3014757;-62
2023/01/29 19:52:33;;;;;;;10.70;5.40;;;;;;;-2.02;69.62;99283.73;79224;1297;3011714;-63
2023/01/29 19:55:02;;;;;;;10.90;4.90;;;;;;;-2.15;70.11;99284.07;78073;1300;3050401;-62
2023/01/29 19:57:29;;;;;;;9.40;4.30;;;;;;;-2.08;69.97;99285.02;79328;1301;3013017;-64
2023/01/29 19:59:56;;;;;;;10.60;5.20;;;;;;;-2.09;69.88;99281.42;79390;1296;3011448;-62
2023/01/29 20:02:27;;;;;;;12.10;6.00;;;;;;;-2.15;70.21;99283.73;78095;1298;3049799;-61
2023/01/29 20:04:54;;;;;;;12.40;6.00;;;;;;;-2.16;70.17;99278.25;79343;1298;3013462;-63
2023/01/29 20:07:49;;;;;;;9.40;4.90;;;;;;;-2.10;69.87;99283.84;78012;1296;3051842;-62
2023/01/29 20:10:44;;;;;;;10.10;5.00;;;;;;;-2.15;69.85;99282.86;78171;1297;3052817;-64
2023/01/29 20:13:18;;;;;;;16.60;5.50;;;;;;;-2.25;70.09;99283.67;78159;1298;3050360;-62
2023/01/29 20:15:45;;;;;;;9.20;4.70;;;;;;;-2.27;70.25;99281.46;79409;1298;3018549;-61
2023/01/29 20:18:13;;;;;;;11.10;5.90;;;;;;;-2.29;70.10;99276.67;79624;1295;3011825;-63
2023/01/29 20:20:51;;;;;;;8.90;4.60;;;;;;;-2.36;70.15;99284.48;78185;1300;3026665;-62
2023/01/29 20:23:19;;;;;;;12.20;5.80;;;;;;;-2.29;70.25;99281.33;78118;1299;3056985;-61
2023/01/29 20:25:47;;;;;;;9.10;5.00;;;;;;;-2.30;70.13;99281.51;79325;1298;3013423;-63
2023/01/29 20:28:14;;;;;;;11.00;5.80;;;;;;;-2.33;70.15;99279.30;79430;1298;3011532;-62
2023/01/29 20:30:44;;;;;;;12.80;5.20;;;;;;;-2.32;70.33;99275.02;78142;1299;3051992;-64
2023/01/29 20:33:12;;;;;;;9.80;4.70;;;;;;;-2.31;70.31;99269.84;79437;1299;3011655;-63
2023/01/29 20:35:42;;;;;;;10.40;5.10;;;;;;;-2.24;70.42;99274.73;78947;1300;3013426;-61
2023/01/29 20:38:08;;;;;;;13.40;6.60;;;;;;;-2.21;70.00;99277.79;79300;1298;3018297;-63
2023/01/29 20:40:34;;;;;;;10.70;5.80;;;;;;;-2.26;70.26;99273.90;79254;1299;3011634;-62
2023/01/29 20:43:02;;;;;;;12.90;5.80;;;;;;;-2.20;70.27;99273.67;78091;1301;3028123;-61
2023/01/29 20:45:31;;;;;;;14.60;5.90;;;;;;;-2.22;70.12;99275.92;79256;1300;3013672;-64
2023/01/29 20:47:58;;;;;;;11.40;5.20;;;;;;;-2.29;70.30;99280.98;79457;1298;3011293;-62
2023/01/29 20:50:26;;;;;;;16.60;6.10;;;;;;;-2.40;70.52;99272.70;78269;1298;3068067;-62
2023/01/29 20:52:52;;;;;;;9.30;5.50;;;;;;;-2.36;70.43;99284.13;79254;1300;3018709;-65